Time;durP1;ratioP1;P1;durP2;ratioP2;P2;SDS_P1;SDS_P2;PMS_P1;PMS_P2;Temp;Humidity;BMP_temperature;BMP_pressure;BME280_temperature;BME280_humidity;BME280_pressure;Samples;Min_cycle;Max_cycle;Signal;HPM_P1;HPM_P2
2023/01/21 00:00:12;;;;;;;50.53;20.38;;;;;;;-144.47;91.65;53120.25;5003257;28;20048;-67
2023/01/21 00:02:38;;;;;;;47.30;19.48;;;;;;;-144.47;91.70;53142.09;4989307;28;20030;-67
2023/01/21 00:05:03;;;;;;;50.47;18.27;;;;;;;-144.47;91.63;53102.38;5003320;28;20030;-67
2023/01/21 00:07:29;;;;;;;51.47;21.70;;;;;;;-144.47;91.62;53130.19;4999909;28;20616;-66
2023/01/21 00:09:54;;;;;;;58.40;20.20;;;;;;;-144.47;91.77;53122.25;4999633;28;20049;-67
2023/01/21 00:12:19;;;;;;;59.13;23.23;;;;;;;-144.47;91.87;53112.31;5003034;28;20260;-65
2023/01/21 00:14:45;;;;;;;48.65;16.92;;;;;;;-144.47;91.86;53128.22;5012219;28;20026;-68
2023/01/21 00:17:10;;;;;;;59.97;22.98;;;;;;;-144.47;91.75;53146.09;5012051;28;20073;-68
2023/01/21 00:19:35;;;;;;;46.92;19.38;;;;;;;-144.47;91.54;53118.28;4996678;28;20030;-64
2023/01/21 00:22:01;;;;;;;57.90;22.02;;;;;;;-144.47;91.34;53138.13;4990962;28;20025;-65
2023/01/21 00:24:26;;;;;;;47.10;18.88;;;;;;;-144.47;91.30;53140.13;4999684;28;20075;-63
2023/01/21 00:26:52;;;;;;;50.42;20.23;;;;;;;-144.47;91.63;53126.22;5007905;28;20026;-67
2023/01/21 00:29:17;;;;;;;50.30;21.67;;;;;;;-144.47;91.63;53150.06;5011857;28;20105;-64
2023/01/21 00:31:43;;;;;;;42.80;19.00;;;;;;;-144.47;91.67;53120.25;5008595;28;20440;-64
2023/01/21 00:34:09;;;;;;;54.17;22.05;;;;;;;-144.47;91.59;53130.19;4993653;28;20504;-66
2023/01/21 00:36:35;;;;;;;48.63;18.10;;;;;;;-144.47;91.47;53130.19;4994503;28;20102;-64
2023/01/21 00:39:00;;;;;;;51.47;20.85;;;;;;;-144.47;91.71;53136.16;5007806;28;20113;-67
2023/01/21 00:41:25;;;;;;;57.78;20.55;;;;;;;-144.47;91.54;53126.22;4994843;28;20030;-68
2023/01/21 00:43:51;;;;;;;54.63;23.10;;;;;;;-144.47;91.39;53114.31;5005881;28;20041;-66
2023/01/21 00:46:17;;;;;;;57.67;20.45;;;;;;;-144.47;91.67;53124.22;4998932;28;20025;-65
2023/01/21 00:48:43;;;;;;;52.10;21.83;;;;;;;-144.47;91.48;53122.25;5010400;28;20025;-65
2023/01/21 00:51:09;;;;;;;56.60;23.65;;;;;;;-144.47;91.72;53122.25;5014303;28;20104;-67
2023/01/21 00:53:37;;;;;;;47.53;18.52;;;;;;;-144.47;91.69;53106.34;5007073;28;20481;-63
2023/01/21 00:56:07;;;;;;;50.50;18.52;;;;;;;-144.47;92.10;53128.22;4994677;28;20018;-64
2023/01/21 00:58:33;;;;;;;47.83;20.17;;;;;;;-144.47;92.31;53122.25;4993916;28;20036;-63
2023/01/21 01:01:11;;;;;;;50.33;20.40;;;;;;;-144.47;92.32;53126.22;4995853;28;20105;-66
2023/01/21 01:03:37;;;;;;;65.78;20.85;;;;;;;-144.47;92.39;53102.38;5004643;28;20046;-65
2023/01/21 01:06:08;;;;;;;55.30;20.25;;;;;;;-144.47;92.21;53124.22;5009765;28;20030;-66
2023/01/21 01:08:34;;;;;;;54.17;21.08;;;;;;;-144.47;92.27;53100.41;5007630;28;20046;-66
2023/01/21 01:10:59;;;;;;;49.95;18.80;;;;;;;-144.47;91.99;53154.03;4992492;28;20106;-66
2023/01/21 01:13:26;;;;;;;59.60;19.30;;;;;;;-144.47;91.67;53104.38;4992869;28;20018;-64
2023/01/21 01:15:54;;;;;;;41.53;18.38;;;;;;;-144.47;91.92;53108.34;5023869;28;20538;-67
2023/01/21 01:18:21;;;;;;;47.35;18.75;;;;;;;-144.47;91.80;53116.28;4999537;28;20041;-67
2023/01/21 01:20:47;;;;;;;50.78;17.55;;;;;;;-144.47;91.99;53130.19;5002646;28;20452;-66
2023/01/21 01:23:12;;;;;;;43.13;17.55;;;;;;;-144.47;92.08;53122.25;5010021;28;20104;-66
2023/01/21 01:25:38;;;;;;;44.00;17.55;;;;;;;-144.47;92.22;53146.09;5000585;28;20079;-65
2023/01/21 01:28:04;;;;;;;46.55;17.70;;;;;;;-144.47;92.02;53158.00;4992827;28;20408;-67
2023/01/21 01:30:29;;;;;;;52.53;18.45;;;;;;;-144.47;91.93;53142.09;4992578;28;20101;-67
2023/01/21 01:32:55;;;;;;;47.03;19.65;;;;;;;-144.47;91.96;53132.19;4992228;28;21210;-63
2023/01/21 01:35:20;;;;;;;42.95;17.00;;;;;;;-144.47;91.57;53122.25;4992676;28;20023;-65
2023/01/21 01:37:46;;;;;;;48.58;19.17;;;;;;;-144.47;91.54;53150.06;5004735;28;20166;-65
2023/01/21 01:40:11;;;;;;;42.72;15.80;;;;;;;-144.47;91.57;53112.31;5001166;28;20022;-66
2023/01/21 01:42:37;;;;;;;45.13;16.75;;;;;;;-144.47;91.06;53124.22;5001704;28;20514;-62
2023/01/21 01:45:15;;;;;;;38.25;14.95;;;;;;;-144.47;90.25;53140.13;5018235;28;20038;-66
2023/01/21 01:48:05;;;;;;;35.58;15.32;;;;;;;-144.47;90.20;53160.00;4996563;28;20042;-67
2023/01/21 01:50:34;;;;;;;46.40;15.88;;;;;;;-144.47;90.65;53126.22;5008747;28;20033;-65
2023/01/21 01:53:00;;;;;;;;;;;;;;;-144.47;90.46;53118.28;5005485;28;20026;-66
2023/01/21 01:55:27;;;;;;;39.75;14.90;;;;;;;-144.47;90.46;53160.00;5004980;28;19917;-66
2023/01/21 01:57:54;;;;;;;43.70;16.70;;;;;;;-144.47;90.59;53175.88;4991588;28;20104;-66
2023/01/21 02:00:20;;;;;;;43.22;17.08;;;;;;;-144.47;90.91;53138.13;4992257;28;20046;-66
2023/01/21 02:03:43;;;;;;;53.05;18.85;;;;;;;-144.47;90.85;53154.03;4994358;28;20143;-66
2023/01/21 02:05:32;;;;;;;42.72;16.05;;;;;;;-144.47;91.12;53126.22;4993539;28;20157;-65
2023/01/21 02:07:59;;;;;;;45.70;16.10;;;;;;;-144.47;91.15;53154.03;5004703;28;20029;-67
2023/01/21 02:10:24;;;;;;;42.75;16.48;;;;;;;-144.47;91.33;53140.13;4994456;28;20030;-66
2023/01/21 02:12:50;;;;;;;47.70;17.73;;;;;;;-144.47;91.29;53136.16;4990362;28;20076;-67
2023/01/21 02:15:15;;;;;;;39.95;16.63;;;;;;;-144.47;91.22;53120.25;5018673;28;20021;-66
2023/01/21 02:18:14;;;;;;;48.10;16.20;;;;;;;-144.47;91.42;53152.03;5004936;28;20026;-67
2023/01/21 02:20:40;;;;;;;;;;;;;;;-144.47;91.06;53118.28;5000225;28;20033;-64
2023/01/21 02:23:28;;;;;;;42.22;13.50;;;;;;;-144.47;91.35;53161.97;4992705;28;19922;-65
2023/01/21 02:26:12;;;;;;;38.40;13.45;;;;;;;-144.47;91.86;53160.00;4991830;28;20030;-67
2023/01/21 02:29:14;;;;;;;31.02;13.68;;;;;;;-144.47;91.84;53136.16;4991119;28;20420;-67
2023/01/21 02:32:07;;;;;;;40.53;15.45;;;;;;;-144.47;91.95;53148.06;4991514;28;20504;-64
2023/01/21 02:35:06;;;;;;;34.50;14.20;;;;;;;-144.47;92.12;53134.16;5001912;28;20034;-66
2023/01/21 02:37:31;;;;;;;;;;;;;;;-144.47;91.93;53165.94;4991786;28;20096;-67
2023/01/21 02:40:28;;;;;;;36.92;13.82;;;;;;;-144.47;91.45;53152.03;5002236;28;19909;-67
2023/01/21 02:43:19;;;;;;;32.10;13.40;;;;;;;-144.47;91.69;53148.06;5002855;28;20030;-66
2023/01/21 02:45:58;;;;;;;35.47;13.85;;;;;;;-144.47;91.74;53179.84;4999347;28;20038;-66
2023/01/21 02:48:28;;;;;;;;;;;;;;;-144.47;91.82;53146.09;4995660;28;20476;-66
2023/01/21 02:50:54;;;;;;;32.85;13.65;;;;;;;-144.47;91.88;53150.06;5005910;28;20309;-67
2023/01/21 02:53:24;;;;;;;38.22;14.93;;;;;;;-144.47;91.87;53154.03;5007379;28;20476;-66
2023/01/21 02:55:50;;;;;;;43.45;14.48;;;;;;;-144.47;91.93;53169.91;4990700;28;20097;-65
2023/01/21 02:58:18;;;;;;;42.08;16.83;;;;;;;-144.47;92.02;53181.84;4991479;28;20057;-63
2023/01/21 03:00:54;;;;;;;40.65;14.02;;;;;;;-144.47;92.00;53136.16;4988846;28;20026;-65
2023/01/21 03:03:47;;;;;;;38.28;15.77;;;;;;;-144.47;91.87;53142.09;4993514;28;20033;-62
2023/01/21 03:06:27;;;;;;;41.50;14.27;;;;;;;-144.47;91.79;53148.06;4990765;28;20054;-63
2023/01/21 03:09:00;;;;;;;37.35;14.55;;;;;;;-144.47;91.48;53140.13;5008215;28;20026;-64
2023/01/21 03:11:26;;;;;;;33.97;14.25;;;;;;;-144.47;91.41;53132.19;4990438;28;20026;-63
2023/01/21 03:16:58;;;;;;;48.92;15.27;;;;;;;-144.47;91.83;53148.06;5016035;28;20041;-65
2023/01/21 03:19:50;;;;;;;38.40;15.18;;;;;;;-144.47;91.58;53173.88;4990380;28;20030;-67
2023/01/21 03:22:20;;;;;;;44.60;19.15;;;;;;;-144.47;91.80;53140.13;4984989;28;20288;-63
2023/01/21 03:24:49;;;;;;;37.47;15.63;;;;;;;-144.47;91.99;53122.25;4990881;28;20420;-63
2023/01/21 03:27:20;;;;;;;46.05;15.75;;;;;;;-144.47;92.18;53138.13;4990208;28;20527;-66
2023/01/21 03:29:49;;;;;;;45.28;15.80;;;;;;;-144.47;92.20;53165.94;4990483;28;20053;-64
2023/01/21 03:32:17;;;;;;;43.20;16.90;;;;;;;-144.47;91.99;53138.13;4990694;28;20057;-62
2023/01/21 03:34:50;;;;;;;56.35;16.08;;;;;;;-144.47;92.41;53132.19;4997036;28;20026;-67
2023/01/21 03:37:29;;;;;;;51.55;18.50;;;;;;;-144.47;92.36;53124.22;4990247;28;20026;-66
2023/01/21 03:40:14;;;;;;;52.45;16.23;;;;;;;-144.47;92.14;53142.09;5009057;28;20125;-66
2023/01/21 03:42:42;;;;;;;32.70;12.57;;;;;;;-144.47;92.26;53169.91;4997331;28;20030;-63
2023/01/21 03:45:08;;;;;;;39.75;16.02;;;;;;;-144.47;92.51;53128.22;5006617;28;20018;-67
2023/01/21 03:47:36;;;;;;;48.17;17.95;;;;;;;-144.47;92.41;53158.00;4990347;28;20076;-65
2023/01/21 03:50:08;;;;;;;47.05;16.02;;;;;;;-144.47;92.81;53160.00;4992224;28;20058;-65
2023/01/21 03:52:37;;;;;;;38.70;16.15;;;;;;;-144.47;92.68;53191.78;4990042;28;20614;-64
2023/01/21 03:55:02;;;;;;;;;;;;;;;-144.47;92.79;53142.09;4990634;28;20508;-65
2023/01/21 03:57:28;;;;;;;34.83;12.65;;;;;;;-144.47;92.21;53150.06;4989783;28;19909;-66
2023/01/21 03:59:53;;;;;;;34.65;13.45;;;;;;;-144.47;91.52;53138.13;4991281;28;20026;-66
2023/01/21 04:02:19;;;;;;;41.55;12.02;;;;;;;-144.47;91.82;53106.34;4990155;28;20060;-66
2023/01/21 04:04:46;;;;;;;42.22;14.73;;;;;;;-144.47;91.69;53161.97;4999873;28;20034;-66
2023/01/21 04:07:12;;;;;;;42.30;14.02;;;;;;;-144.47;92.17;53138.13;4991764;28;20052;-63
2023/01/21 04:09:38;;;;;;;39.40;14.32;;;;;;;-144.47;92.58;53138.13;5006387;28;20085;-66
2023/01/21 04:12:03;;;;;;;49.13;15.25;;;;;;;-144.47;92.69;53165.94;4989481;28;20106;-64
2023/01/21 04:14:29;;;;;;;48.85;15.32;;;;;;;-144.47;93.07;53124.22;5005227;28;20093;-66
2023/01/21 04:16:54;;;;;;;46.80;16.35;;;;;;;-144.47;92.83;53142.09;5018293;28;20447;-63
2023/01/21 04:19:20;;;;;;;39.33;14.35;;;;;;;-144.47;92.86;53160.00;4999547;28;20057;-65
2023/01/21 04:21:45;;;;;;;35.63;13.65;;;;;;;-144.47;92.94;53167.94;4996570;28;20058;-67
2023/01/21 04:24:11;;;;;;;47.75;16.35;;;;;;;-144.47;93.42;53130.19;4997239;28;20026;-65
2023/01/21 04:26:36;;;;;;;34.78;14.50;;;;;;;-144.47;93.78;53146.09;4993009;28;20030;-67
2023/01/21 04:29:01;;;;;;;49.85;18.52;;;;;;;-144.47;94.29;53177.88;4993923;28;20033;-65
2023/01/21 04:31:27;;;;;;;47.08;15.82;;;;;;;-144.47;94.48;53179.84;4993655;28;20022;-68
2023/01/21 04:33:52;;;;;;;50.95;16.55;;;;;;;-144.47;94.27;53161.97;4993422;28;20022;-66
2023/01/21 04:36:17;;;;;;;37.80;14.95;;;;;;;-144.47;94.35;53177.88;4996171;28;20025;-67
2023/01/21 04:38:43;;;;;;;38.47;14.80;;;;;;;-144.47;94.49;53130.19;5000236;28;20488;-65
2023/01/21 04:41:08;;;;;;;44.25;14.18;;;;;;;-144.47;94.92;53136.16;5003546;28;20502;-67
2023/01/21 04:43:33;;;;;;;50.67;17.45;;;;;;;-144.47;95.21;53146.09;5002528;28;20026;-69
2023/01/21 04:45:59;;;;;;;49.92;16.50;;;;;;;-144.47;95.55;53142.09;4993513;28;20084;-67
2023/01/21 04:48:24;;;;;;;38.83;15.23;;;;;;;-144.47;95.59;53167.94;4992933;28;20022;-65
2023/01/21 04:50:49;;;;;;;49.25;17.15;;;;;;;-144.47;95.54;53167.94;4993482;28;20085;-65
2023/01/21 04:53:15;;;;;;;38.88;14.80;;;;;;;-144.47;95.75;53167.94;4993396;28;20111;-67
2023/01/21 04:55:40;;;;;;;43.90;15.70;;;;;;;-144.47;95.86;53150.06;4993246;28;20026;-66
2023/01/21 04:58:05;;;;;;;51.03;17.20;;;;;;;-144.47;95.76;53132.19;4992903;28;20034;-67
2023/01/21 05:00:31;;;;;;;38.30;16.42;;;;;;;-144.47;95.50;53108.34;4993239;28;20023;-66
2023/01/21 05:02:56;;;;;;;39.90;15.48;;;;;;;-144.47;95.37;53140.13;4993489;28;20108;-67
2023/01/21 05:05:21;;;;;;;38.15;15.43;;;;;;;-144.47;95.00;53158.00;5004067;28;20112;-66
2023/01/21 05:07:47;;;;;;;44.83;15.98;;;;;;;-144.47;95.25;53142.09;5017894;28;20025;-67
2023/01/21 05:10:16;;;;;;;44.10;14.90;;;;;;;-144.47;95.32;53144.09;5000576;28;20037;-66
2023/01/21 05:12:42;;;;;;;35.92;14.38;;;;;;;-144.47;94.88;53171.91;4993536;28;20153;-64
2023/01/21 05:15:08;;;;;;;47.28;14.35;;;;;;;-144.47;95.08;53138.13;5018562;28;20032;-67
2023/01/21 05:17:33;;;;;;;32.97;13.95;;;;;;;-144.47;94.63;53160.00;5007015;28;20027;-68
2023/01/21 05:19:59;;;;;;;35.63;14.18;;;;;;;-144.47;94.63;53130.19;4997608;28;20611;-64
2023/01/21 05:22:24;;;;;;;32.92;13.43;;;;;;;-144.47;94.61;53148.06;4992801;28;20026;-64
2023/01/21 05:24:49;;;;;;;34.30;14.23;;;;;;;-144.47;94.65;53124.22;5008131;28;20581;-66
2023/01/21 05:27:15;;;;;;;45.78;13.70;;;;;;;-144.47;94.72;53154.03;5002628;28;20105;-66
2023/01/21 05:29:40;;;;;;;29.83;14.15;;;;;;;-144.47;94.92;53154.03;4995579;28;20037;-63
2023/01/21 05:32:06;;;;;;;47.13;13.30;;;;;;;-144.47;95.10;53154.03;5003907;28;20042;-66
2023/01/21 05:34:31;;;;;;;27.38;12.45;;;;;;;-144.47;94.71;53144.09;4993355;28;20037;-66
2023/01/21 05:36:56;;;;;;;26.17;11.10;;;;;;;-144.47;94.60;53150.06;4993481;28;20658;-66
2023/01/21 05:39:22;;;;;;;28.60;12.10;;;;;;;-144.47;94.36;53183.81;5008490;28;20030;-68
2023/01/21 05:41:47;;;;;;;25.20;11.80;;;;;;;-144.47;94.35;53136.16;5002066;28;20436;-65
2023/01/21 05:44:12;;;;;;;29.42;11.88;;;;;;;-144.47;94.44;53158.00;4995750;28;20523;-67
2023/01/21 05:46:38;;;;;;;25.58;11.43;;;;;;;-144.47;94.58;53177.88;4992648;28;20446;-65
2023/01/21 05:49:03;;;;;;;24.00;10.60;;;;;;;-144.47;94.53;53148.06;5021738;22;20563;-64
2023/01/21 05:51:28;;;;;;;31.00;10.27;;;;;;;-144.47;94.71;53167.94;5029314;28;20748;-62
2023/01/21 05:53:54;;;;;;;32.10;12.55;;;;;;;-144.47;94.53;53140.13;5030079;28;20410;-66
2023/01/21 05:56:19;;;;;;;28.05;9.80;;;;;;;-144.47;94.62;53152.03;5029861;28;20021;-65
2023/01/21 05:58:45;;;;;;;26.92;9.82;;;;;;;-144.47;94.90;53171.91;5029780;28;20040;-66
2023/01/21 06:01:10;;;;;;;29.55;10.13;;;;;;;-144.47;94.94;53138.13;5029021;28;20029;-66
2023/01/21 06:03:36;;;;;;;25.40;9.23;;;;;;;-144.47;95.03;53161.97;5028051;28;20048;-65
2023/01/21 06:06:02;;;;;;;20.08;8.85;;;;;;;-144.47;95.12;53124.22;5028031;28;20040;-66
2023/01/21 06:08:28;;;;;;;31.08;10.32;;;;;;;-144.47;95.15;53163.97;5027729;28;20402;-63
2023/01/21 06:10:55;;;;;;;21.25;9.35;;;;;;;-144.47;95.45;53140.13;5029396;28;20036;-66
2023/01/21 06:13:21;;;;;;;25.20;9.15;;;;;;;-144.47;95.59;53144.09;5027450;28;20582;-64
2023/01/21 06:15:46;;;;;;;20.20;9.65;;;;;;;-144.47;95.99;53118.28;5025499;28;20052;-64
2023/01/21 06:18:12;;;;;;;24.35;9.82;;;;;;;-144.47;96.04;53165.94;5028790;28;20034;-65
2023/01/21 06:20:37;;;;;;;21.27;8.63;;;;;;;-144.47;96.12;53148.06;5021983;28;20076;-65
2023/01/21 06:23:03;;;;;;;27.75;9.18;;;;;;;-144.47;96.43;53160.00;5024761;28;20033;-65
2023/01/21 06:25:29;;;;;;;21.58;9.35;;;;;;;-144.47;96.55;53122.25;5028331;28;20021;-65
2023/01/21 06:27:56;;;;;;;24.95;9.80;;;;;;;-144.47;96.74;53138.13;5028090;28;20429;-65
2023/01/21 06:30:22;;;;;;;28.10;8.77;;;;;;;-144.47;96.64;53154.03;5028604;28;20027;-66
2023/01/21 06:32:48;;;;;;;26.33;10.40;;;;;;;-144.47;96.40;53150.06;5028126;28;20044;-65
2023/01/21 06:35:14;;;;;;;22.73;9.57;;;;;;;-144.47;96.19;53158.00;5028233;28;20022;-66
2023/01/21 06:37:39;;;;;;;24.15;9.10;;;;;;;-144.47;96.16;53136.16;5021611;28;20430;-65
2023/01/21 06:40:07;;;;;;;29.65;9.65;;;;;;;-144.47;95.97;53173.88;5027054;28;20415;-64
2023/01/21 06:42:32;;;;;;;28.35;10.70;;;;;;;-144.47;96.14;53114.31;5028764;28;20029;-66
2023/01/21 06:44:57;;;;;;;25.90;9.30;;;;;;;-144.47;95.89;53169.91;5028454;28;20689;-66
2023/01/21 06:47:23;;;;;;;23.33;9.93;;;;;;;-144.47;96.22;53165.94;5028122;28;20128;-65
2023/01/21 06:49:48;;;;;;;28.17;9.75;;;;;;;-144.47;95.01;53148.06;5027415;28;20061;-66
2023/01/21 06:52:13;;;;;;;30.90;10.65;;;;;;;-144.47;95.24;53165.94;5024308;28;20033;-67
2023/01/21 06:54:39;;;;;;;24.55;8.57;;;;;;;-144.47;96.78;53122.25;5027937;28;20033;-64
2023/01/21 06:57:04;;;;;;;29.45;10.60;;;;;;;-144.47;95.71;53152.03;5028678;28;20444;-67
2023/01/21 06:59:30;;;;;;;24.48;12.02;;;;;;;-144.47;94.75;53181.84;5028569;28;20521;-67
2023/01/21 07:01:57;;;;;;;22.75;9.77;;;;;;;-144.47;93.55;53112.31;5028174;28;20029;-68
2023/01/21 07:04:24;;;;;;;29.73;11.02;;;;;;;-144.47;93.34;53138.13;5027587;28;20037;-66
2023/01/21 07:06:49;;;;;;;28.08;10.95;;;;;;;-144.47;93.31;53116.28;5026434;28;20121;-66
2023/01/21 07:09:15;;;;;;;29.10;10.73;;;;;;;-144.47;92.92;53136.16;5031254;28;20193;-65
2023/01/21 07:11:40;;;;;;;31.88;10.23;;;;;;;-144.47;92.56;53165.94;5028017;28;20056;-65
2023/01/21 07:14:05;;;;;;;25.73;10.52;;;;;;;-144.47;92.32;53150.06;5021581;28;20041;-67
2023/01/21 07:16:31;;;;;;;26.92;10.68;;;;;;;-144.47;92.74;53163.97;5027664;28;20440;-65
2023/01/21 07:18:56;;;;;;;22.35;9.95;;;;;;;-144.47;92.46;53112.31;5023882;28;20120;-66
2023/01/21 07:21:23;;;;;;;37.70;9.88;;;;;;;-144.47;92.46;53138.13;5011656;28;20072;-67
2023/01/21 07:23:54;;;;;;;32.78;10.30;;;;;;;-144.47;92.54;53146.09;5027360;28;20094;-66
2023/01/21 07:26:20;;;;;;;21.67;10.23;;;;;;;-144.47;92.75;53136.16;5027558;28;20090;-66
2023/01/21 07:28:45;;;;;;;26.90;8.75;;;;;;;-144.47;92.89;53144.09;5027891;28;20025;-65
2023/01/21 07:31:12;;;;;;;26.02;10.88;;;;;;;-144.47;92.95;53158.00;5026511;28;20102;-67
2023/01/21 07:33:38;;;;;;;20.00;9.43;;;;;;;-144.47;92.77;53171.91;5025835;28;20053;-64
2023/01/21 07:36:04;;;;;;;23.83;9.73;;;;;;;-144.47;93.03;53124.22;5026803;28;20253;-66
2023/01/21 07:38:29;;;;;;;22.83;9.63;;;;;;;-144.47;92.58;53124.22;5016812;28;20033;-64
2023/01/21 07:40:55;;;;;;;29.98;10.25;;;;;;;-144.47;92.56;53118.28;5025244;28;20368;-66
2023/01/21 07:43:20;;;;;;;22.70;9.88;;;;;;;-144.47;92.66;53140.13;5027608;28;20039;-66
2023/01/21 07:45:46;;;;;;;26.05;10.45;;;;;;;-144.47;92.29;53142.09;5027290;28;20095;-65
2023/01/21 07:48:11;;;;;;;23.27;9.55;;;;;;;-144.47;92.00;53152.03;5026237;28;20120;-65
2023/01/21 07:50:37;;;;;;;26.05;9.65;;;;;;;-144.47;92.19;53118.28;5026064;28;20044;-64
2023/01/21 07:53:03;;;;;;;25.50;9.57;;;;;;;-144.47;91.41;53114.31;5027891;28;20033;-66
2023/01/21 07:55:29;;;;;;;25.52;9.93;;;;;;;-144.47;91.24;53132.19;5027624;28;20083;-65
2023/01/21 07:57:56;;;;;;;27.30;10.10;;;;;;;-144.47;91.20;53158.00;5027099;28;20045;-66
2023/01/21 08:00:22;;;;;;;17.80;7.95;;;;;;;-144.47;91.54;53158.00;5027178;28;20071;-68
2023/01/21 08:02:52;;;;;;;27.70;11.15;;;;;;;-144.47;91.34;53110.31;5026417;28;20349;-65
2023/01/21 08:05:18;;;;;;;25.52;9.15;;;;;;;-144.47;91.28;53118.28;5026324;28;20037;-65
2023/01/21 08:07:43;;;;;;;24.75;9.35;;;;;;;-144.47;91.52;53136.16;5026724;28;20041;-63
2023/01/21 08:10:09;;;;;;;19.83;8.20;;;;;;;-144.47;91.34;53112.31;5023588;28;20029;-66
2023/01/21 08:12:34;;;;;;;20.50;7.80;;;;;;;-144.47;91.32;53142.09;5026684;28;20076;-64
2023/01/21 08:15:00;;;;;;;27.38;11.40;;;;;;;-144.47;91.31;53118.28;5027845;28;20044;-66
2023/01/21 08:17:26;;;;;;;24.60;10.10;;;;;;;-144.47;91.14;53138.13;5020371;28;20862;-67
2023/01/21 08:19:51;;;;;;;25.08;9.30;;;;;;;-144.47;91.55;53116.28;5017874;28;20091;-66
2023/01/21 08:22:16;;;;;;;17.48;7.80;;;;;;;-144.47;92.04;53110.31;5023284;28;20052;-65
2023/01/21 08:24:42;;;;;;;22.33;9.98;;;;;;;-144.47;92.09;53130.19;5027375;28;20637;-68
2023/01/21 08:27:07;;;;;;;25.63;9.82;;;;;;;-144.47;92.02;53130.19;5026609;28;20041;-64
2023/01/21 08:29:33;;;;;;;26.25;9.32;;;;;;;-144.47;91.93;53118.28;5027124;28;20419;-67
2023/01/21 08:31:58;;;;;;;20.95;9.57;;;;;;;-144.47;91.99;53132.19;5025155;28;20672;-66
2023/01/21 08:34:24;;;;;;;23.08;10.35;;;;;;;-144.47;92.04;53132.19;5028305;28;20667;-66
2023/01/21 08:36:49;;;;;;;30.00;9.85;;;;;;;-144.47;92.46;53116.28;5031243;28;20064;-64
2023/01/21 08:39:15;;;;;;;41.97;10.02;;;;;;;-144.47;92.22;53128.22;5026771;28;20069;-65
2023/01/21 08:41:41;;;;;;;28.23;10.35;;;;;;;-144.47;92.54;53156.00;5025470;28;20037;-66
2023/01/21 08:44:07;;;;;;;28.45;10.75;;;;;;;-144.47;93.10;53116.28;5032117;28;20127;-65
2023/01/21 08:46:33;;;;;;;30.80;11.52;;;;;;;-144.47;93.07;53126.22;5031516;28;20022;-67
2023/01/21 08:48:58;;;;;;;23.65;10.15;;;;;;;-144.47;92.79;53130.19;5026533;28;20636;-66
2023/01/21 08:51:24;;;;;;;33.10;9.95;;;;;;;-144.47;92.34;53150.06;5027168;28;20026;-67
2023/01/21 08:53:52;;;;;;;30.23;11.27;;;;;;;-144.47;92.03;53142.09;5026668;28;20066;-66
2023/01/21 08:56:17;;;;;;;20.52;8.85;;;;;;;-144.47;92.16;53132.19;5026959;28;20014;-67
2023/01/21 08:58:44;;;;;;;34.03;11.73;;;;;;;-144.47;92.04;53144.09;5027513;28;20044;-66
2023/01/21 09:01:12;;;;;;;20.88;9.25;;;;;;;-144.47;91.68;53134.16;5030601;28;20033;-65
2023/01/21 09:03:37;;;;;;;24.70;9.38;;;;;;;-144.47;91.48;53130.19;5018115;28;20017;-66
2023/01/21 09:06:05;;;;;;;18.98;8.98;;;;;;;-144.47;90.97;53114.31;5030396;28;20025;-66
2023/01/21 09:08:31;;;;;;;19.67;9.57;;;;;;;-144.47;91.19;53124.22;5034957;28;20021;-67
2023/01/21 09:11:00;;;;;;;27.58;9.85;;;;;;;-144.47;90.91;53114.31;5037721;28;20697;-65
2023/01/21 09:13:30;;;;;;;26.23;9.80;;;;;;;-144.47;90.92;53134.16;5027581;28;20406;-65
2023/01/21 09:15:57;;;;;;;24.73;8.90;;;;;;;-144.47;90.97;53122.25;5026168;28;20021;-65
2023/01/21 09:18:22;;;;;;;23.70;9.60;;;;;;;-144.47;91.34;53114.31;5032858;28;20056;-65
2023/01/21 09:20:48;;;;;;;30.30;10.52;;;;;;;-144.47;91.42;53154.03;5034288;28;20501;-66
2023/01/21 09:23:25;;;;;;;22.42;9.23;;;;;;;-144.47;91.47;53116.28;5031951;28;20048;-68
2023/01/21 09:26:02;;;;;;;28.90;8.95;;;;;;;-144.47;91.62;53138.13;5030510;28;20049;-68
2023/01/21 09:28:30;;;;;;;17.48;7.88;;;;;;;-144.47;91.20;53130.19;5028189;28;20463;-67
2023/01/21 09:31:01;;;;;;;23.75;9.85;;;;;;;-144.47;90.65;53146.09;5029659;28;20033;-70
2023/01/21 09:33:29;;;;;;;20.90;8.57;;;;;;;-144.47;90.80;53126.22;5030374;28;20112;-66
2023/01/21 09:35:57;;;;;;;20.33;8.82;;;;;;;-144.47;90.38;53130.19;5030041;28;20038;-66
2023/01/21 09:38:23;;;;;;;21.70;8.20;;;;;;;-144.47;90.33;53144.09;5026652;28;20025;-65
2023/01/21 09:40:49;;;;;;;19.52;8.57;;;;;;;-144.47;90.20;53096.41;5028627;28;20060;-66
2023/01/21 09:43:31;;;;;;;23.77;9.80;;;;;;;-144.47;90.15;53110.31;5030201;28;20420;-67
2023/01/21 09:46:01;;;;;;;25.70;9.40;;;;;;;-144.47;89.85;53106.34;5024491;28;20117;-67
2023/01/21 09:48:40;;;;;;;19.40;8.25;;;;;;;-144.47;90.11;53114.31;5030388;28;20060;-63
2023/01/21 09:51:18;;;;;;;29.80;9.23;;;;;;;-144.47;89.02;53098.41;5028427;28;20049;-66
2023/01/21 09:53:50;;;;;;;28.17;9.43;;;;;;;-144.47;89.25;53106.34;5030639;28;20064;-65
2023/01/21 09:56:30;;;;;;;24.17;8.48;;;;;;;-144.47;88.83;53104.38;5028106;28;20095;-68
2023/01/21 09:59:14;;;;;;;30.60;10.52;;;;;;;-144.47;88.41;53098.41;5029087;28;20113;-67
2023/01/21 10:01:41;;;;;;;25.98;10.20;;;;;;;-144.47;88.54;53120.25;5024780;28;20168;-72
2023/01/21 10:04:37;;;;;;;26.70;11.70;;;;;;;-144.47;88.42;53128.22;5017781;28;20045;-67
2023/01/21 10:07:14;;;;;;;19.75;7.57;;;;;;;-144.47;88.36;53090.47;5027198;28;20093;-67
2023/01/21 10:09:45;;;;;;;20.30;8.98;;;;;;;-144.47;87.83;53094.44;5028862;28;20036;-70
2023/01/21 10:12:17;;;;;;;22.30;9.10;;;;;;;-144.47;87.30;53122.25;5019103;28;20033;-65
2023/01/21 10:14:45;;;;;;;20.90;8.80;;;;;;;-144.47;86.94;53098.41;5022246;28;20112;-67
2023/01/21 10:17:35;;;;;;;29.50;10.32;;;;;;;-144.47;86.92;53108.34;5027885;28;20055;-68
2023/01/21 10:20:25;;;;;;;27.27;10.23;;;;;;;-144.47;87.03;53088.47;5024062;28;20022;-67
2023/01/21 10:22:59;;;;;;;18.65;8.52;;;;;;;-144.47;87.19;53104.38;5027427;28;20052;-68
2023/01/21 10:25:30;;;;;;;21.00;9.10;;;;;;;-144.47;87.47;53094.44;5028659;28;20140;-68
2023/01/21 10:28:00;;;;;;;25.00;8.32;;;;;;;-144.47;87.78;53112.31;5028709;28;20036;-66
2023/01/21 10:30:33;;;;;;;22.10;8.82;;;;;;;-144.47;87.55;53092.44;5028596;28;20032;-65
2023/01/21 10:32:59;;;;;;;20.88;7.43;;;;;;;-144.47;87.50;53114.31;5028749;28;20104;-65
2023/01/21 10:35:43;;;;;;;20.30;8.32;;;;;;;-144.47;87.48;53082.53;5029250;28;20081;-70
2023/01/21 10:38:24;;;;;;;18.85;7.82;;;;;;;-144.47;87.24;53118.28;5029834;28;20133;-67
2023/01/21 10:40:55;;;;;;;19.95;7.97;;;;;;;-144.47;86.95;53088.47;5029199;28;20100;-69
2023/01/21 10:43:34;;;;;;;16.60;7.72;;;;;;;-144.47;86.60;53126.22;5029272;28;20021;-69
2023/01/21 10:46:11;;;;;;;17.88;6.78;;;;;;;-144.47;86.65;53102.38;5028911;28;20403;-66
2023/01/21 10:49:24;;;;;;;15.20;8.05;;;;;;;-144.47;86.52;53100.41;5028438;28;20040;-69
2023/01/21 10:52:10;;;;;;;21.00;7.90;;;;;;;-144.47;86.89;53122.25;5015230;28;20041;-70
2023/01/21 10:54:51;;;;;;;25.63;8.23;;;;;;;-144.47;86.98;53094.44;5027281;28;20064;-70
2023/01/21 10:57:16;;;;;;;17.25;7.53;;;;;;;-144.47;86.34;53068.63;5028081;28;20032;-71
2023/01/21 10:59:42;;;;;;;20.58;9.68;;;;;;;-144.47;86.77;53122.25;5027034;28;20025;-65
2023/01/21 11:02:07;;;;;;;18.20;9.20;;;;;;;-144.47;86.68;53110.31;5028935;28;20021;-73
2023/01/21 11:04:34;;;;;;;19.92;10.55;;;;;;;-144.47;86.55;53070.59;5027561;28;20592;-69
2023/01/21 11:07:02;;;;;;;24.27;12.23;;;;;;;-144.47;86.07;53108.34;5026972;28;20121;-70
2023/01/21 11:09:32;;;;;;;22.35;9.88;;;;;;;-144.47;85.92;53088.47;5027677;28;20116;-68
2023/01/21 11:11:59;;;;;;;22.10;8.40;;;;;;;-144.47;85.16;53118.28;5022397;28;20029;-69
2023/01/21 11:14:25;;;;;;;20.85;7.50;;;;;;;-144.47;84.63;53092.44;5020391;28;20436;-68